sensor_id;sensor_type;location;lat;lon;timestamp;pressure;altitude;pressure_sealevel;temperature;humidity
53889;BME280;41337;51.400;-2.342;2022-12-29T00:04:53;98975.50;;;7.78;100.00
53889;BME280;41337;51.400;-2.342;2022-12-29T00:09:54;98959.22;;;7.70;100.00
53889;BME280;41337;51.400;-2.342;2022-12-29T00:14:55;98959.31;;;7.64;100.00
53889;BME280;41337;51.400;-2.342;2022-12-29T00:20:14;98937.03;;;7.52;100.00
53889;BME280;41337;51.400;-2.342;2022-12-29T00:25:35;98919.00;;;7.46;100.00
53889;BME280;41337;51.400;-2.342;2022-12-29T00:31:02;98920.66;;;7.50;100.00
53889;BME280;41337;51.400;-2.342;2022-12-29T00:36:23;98928.53;;;7.44;100.00
53889;BME280;41337;51.400;-2.342;2022-12-29T00:41:30;98907.75;;;7.45;100.00
53889;BME280;41337;51.400;-2.342;2022-12-29T00:46:50;98907.84;;;7.42;100.00
53889;BME280;41337;51.400;-2.342;2022-12-29T00:51:51;98907.66;;;7.51;100.00
53889;BME280;41337;51.400;-2.342;2022-12-29T00:56:52;98901.53;;;7.57;100.00
53889;BME280;41337;51.400;-2.342;2022-12-29T01:01:54;98880.63;;;7.66;100.00
53889;BME280;41337;51.400;-2.342;2022-12-29T01:06:58;98859.88;;;7.68;100.00
53889;BME280;41337;51.400;-2.342;2022-12-29T01:11:59;98869.44;;;7.66;100.00
53889;BME280;41337;51.400;-2.342;2022-12-29T01:17:00;98869.47;;;7.63;100.00
53889;BME280;41337;51.400;-2.342;2022-12-29T01:22:01;98867.69;;;7.65;100.00
53889;BME280;41337;51.400;-2.342;2022-12-29T01:27:02;98864.28;;;7.63;100.00
53889;BME280;41337;51.400;-2.342;2022-12-29T01:32:03;98851.31;;;7.64;100.00
53889;BME280;41337;51.400;-2.342;2022-12-29T01:37:04;98854.69;;;7.68;100.00
53889;BME280;41337;51.400;-2.342;2022-12-29T01:42:14;98841.59;;;7.77;100.00
53889;BME280;41337;51.400;-2.342;2022-12-29T01:52:27;98907.16;;;7.82;100.00
53889;BME280;41337;51.400;-2.342;2022-12-29T01:57:37;98846.66;;;7.83;100.00
53889;BME280;41337;51.400;-2.342;2022-12-29T02:02:52;98865.44;;;7.96;100.00
53889;BME280;41337;51.400;-2.342;2022-12-29T02:07:54;98844.72;;;7.95;100.00
53889;BME280;41337;51.400;-2.342;2022-12-29T02:12:55;98848.13;;;7.98;100.00
53889;BME280;41337;51.400;-2.342;2022-12-29T02:34:04;98857.44;;;8.07;100.00
53889;BME280;41337;51.400;-2.342;2022-12-29T02:39:33;98869.28;;;8.22;100.00
53889;BME280;41337;51.400;-2.342;2022-12-29T02:50:08;98874.41;;;8.25;100.00
53889;BME280;41337;51.400;-2.342;2022-12-29T02:55:11;98875.44;;;8.16;100.00
53889;BME280;41337;51.400;-2.342;2022-12-29T03:00:17;98871.31;;;8.06;100.00
53889;BME280;41337;51.400;-2.342;2022-12-29T03:16:29;98916.63;;;7.85;100.00
53889;BME280;41337;51.400;-2.342;2022-12-29T03:27:30;98935.03;;;7.69;100.00
53889;BME280;41337;51.400;-2.342;2022-12-29T03:32:39;98947.91;;;7.76;100.00
53889;BME280;41337;51.400;-2.342;2022-12-29T03:38:19;98948.75;;;7.75;100.00
53889;BME280;41337;51.400;-2.342;2022-12-29T03:43:23;98936.84;;;7.64;100.00
53889;BME280;41337;51.400;-2.342;2022-12-29T03:48:25;98950.72;;;7.62;100.00
53889;BME280;41337;51.400;-2.342;2022-12-29T03:53:26;98965.41;;;7.60;100.00
53889;BME280;41337;51.400;-2.342;2022-12-29T03:58:26;98963.63;;;7.63;100.00
53889;BME280;41337;51.400;-2.342;2022-12-29T04:03:27;98983.63;;;7.55;100.00
53889;BME280;41337;51.400;-2.342;2022-12-29T04:08:28;99005.22;;;7.56;100.00
53889;BME280;41337;51.400;-2.342;2022-12-29T04:13:29;99036.09;;;7.71;100.00
53889;BME280;41337;51.400;-2.342;2022-12-29T04:18:30;99056.03;;;7.66;100.00
53889;BME280;41337;51.400;-2.342;2022-12-29T04:23:33;99059.66;;;7.56;100.00
53889;BME280;41337;51.400;-2.342;2022-12-29T04:28:38;99088.84;;;7.70;100.00
53889;BME280;41337;51.400;-2.342;2022-12-29T04:33:39;99098.34;;;7.68;100.00
53889;BME280;41337;51.400;-2.342;2022-12-29T04:38:43;99120.06;;;7.59;100.00
53889;BME280;41337;51.400;-2.342;2022-12-29T04:43:44;99137.41;;;7.54;100.00
53889;BME280;41337;51.400;-2.342;2022-12-29T04:48:45;99162.63;;;7.41;100.00
53889;BME280;41337;51.400;-2.342;2022-12-29T04:53:46;99160.97;;;7.34;100.00
53889;BME280;41337;51.400;-2.342;2022-12-29T04:58:47;99164.47;;;7.30;100.00
53889;BME280;41337;51.400;-2.342;2022-12-29T05:03:55;99183.41;;;7.35;100.00
53889;BME280;41337;51.400;-2.342;2022-12-29T05:08:56;99184.31;;;7.31;100.00
53889;BME280;41337;51.400;-2.342;2022-12-29T05:13:57;99176.63;;;7.25;100.00
53889;BME280;41337;51.400;-2.342;2022-12-29T05:18:58;99198.97;;;7.32;100.00
53889;BME280;41337;51.400;-2.342;2022-12-29T05:23:59;99215.41;;;7.32;100.00
53889;BME280;41337;51.400;-2.342;2022-12-29T05:28:59;99229.25;;;7.27;100.00
53889;BME280;41337;51.400;-2.342;2022-12-29T05:34:01;99243.16;;;7.20;100.00
53889;BME280;41337;51.400;-2.342;2022-12-29T05:39:02;99263.91;;;7.13;100.00
53889;BME280;41337;51.400;-2.342;2022-12-29T05:44:03;99289.00;;;7.07;100.00
53889;BME280;41337;51.400;-2.342;2022-12-29T05:49:04;99299.41;;;6.99;100.00
53889;BME280;41337;51.400;-2.342;2022-12-29T05:54:12;99302.94;;;6.90;100.00
53889;BME280;41337;51.400;-2.342;2022-12-29T05:59:13;99310.69;;;6.93;100.00
53889;BME280;41337;51.400;-2.342;2022-12-29T06:04:13;99329.72;;;6.86;100.00
53889;BME280;41337;51.400;-2.342;2022-12-29T06:09:14;99332.31;;;6.83;100.00
53889;BME280;41337;51.400;-2.342;2022-12-29T06:14:15;99343.44;;;7.01;100.00
53889;BME280;41337;51.400;-2.342;2022-12-29T06:19:16;99351.22;;;6.96;100.00
53889;BME280;41337;51.400;-2.342;2022-12-29T06:24:17;99360.75;;;6.94;100.00
53889;BME280;41337;51.400;-2.342;2022-12-29T06:29:17;99362.50;;;6.92;100.00
53889;BME280;41337;51.400;-2.342;2022-12-29T06:34:18;99372.03;;;6.87;100.00
53889;BME280;41337;51.400;-2.342;2022-12-29T06:39:19;99377.16;;;6.90;100.00
53889;BME280;41337;51.400;-2.342;2022-12-29T06:44:21;99372.88;;;6.89;100.00
53889;BME280;41337;51.400;-2.342;2022-12-29T06:49:22;99369.38;;;6.91;100.00
53889;BME280;41337;51.400;-2.342;2022-12-29T06:54:29;99378.03;;;6.92;100.00
53889;BME280;41337;51.400;-2.342;2022-12-29T06:59:30;99387.53;;;6.88;100.00
53889;BME280;41337;51.400;-2.342;2022-12-29T07:04:31;99397.00;;;6.94;100.00
53889;BME280;41337;51.400;-2.342;2022-12-29T07:09:32;99393.53;;;6.96;100.00
53889;BME280;41337;51.400;-2.342;2022-12-29T07:14:33;99402.16;;;6.97;100.00
53889;BME280;41337;51.400;-2.342;2022-12-29T07:19:34;99404.75;;;6.92;100.00
53889;BME280;41337;51.400;-2.342;2022-12-29T07:24:34;99409.94;;;6.91;100.00
53889;BME280;41337;51.400;-2.342;2022-12-29T07:29:38;99410.88;;;6.77;100.00
53889;BME280;41337;51.400;-2.342;2022-12-29T07:34:43;99440.16;;;6.92;100.00
53889;BME280;41337;51.400;-2.342;2022-12-29T07:39:45;99410.97;;;6.57;100.00
53889;BME280;41337;51.400;-2.342;2022-12-29T07:44:46;99390.31;;;6.47;100.00
53889;BME280;41337;51.400;-2.342;2022-12-29T07:49:47;99399.81;;;6.43;100.00
53889;BME280;41337;51.400;-2.342;2022-12-29T07:54:48;99408.44;;;6.40;100.00
53889;BME280;41337;51.400;-2.342;2022-12-29T07:59:48;99429.97;;;6.46;100.00
53889;BME280;41337;51.400;-2.342;2022-12-29T08:04:49;99438.63;;;6.46;100.00
53889;BME280;41337;51.400;-2.342;2022-12-29T08:09:50;99430.88;;;6.41;100.00
53889;BME280;41337;51.400;-2.342;2022-12-29T08:14:51;99433.47;;;6.29;100.00
53889;BME280;41337;51.400;-2.342;2022-12-29T08:19:52;99488.66;;;6.34;100.00
53889;BME280;41337;51.400;-2.342;2022-12-29T08:24:52;99492.13;;;6.29;100.00
53889;BME280;41337;51.400;-2.342;2022-12-29T08:29:53;99523.13;;;6.49;100.00
53889;BME280;41337;51.400;-2.342;2022-12-29T08:34:54;99520.56;;;6.27;100.00
53889;BME280;41337;51.400;-2.342;2022-12-29T08:39:55;99527.47;;;6.27;100.00
53889;BME280;41337;51.400;-2.342;2022-12-29T08:44:56;99549.00;;;6.22;100.00
53889;BME280;41337;51.400;-2.342;2022-12-29T08:49:57;99533.53;;;6.15;100.00
53889;BME280;41337;51.400;-2.342;2022-12-29T08:55:04;99531.78;;;6.11;100.00
53889;BME280;41337;51.400;-2.342;2022-12-29T09:00:06;99536.09;;;6.04;100.00
53889;BME280;41337;51.400;-2.342;2022-12-29T09:05:07;99551.63;;;6.12;100.00
53889;BME280;41337;51.400;-2.342;2022-12-29T09:10:15;99557.66;;;6.26;100.00
53889;BME280;41337;51.400;-2.342;2022-12-29T09:15:16;99562.81;;;6.32;100.00
53889;BME280;41337;51.400;-2.342;2022-12-29T09:20:18;99569.72;;;6.30;100.00
53889;BME280;41337;51.400;-2.342;2022-12-29T09:25:19;99603.34;;;6.24;100.00
53889;BME280;41337;51.400;-2.342;2022-12-29T09:30:26;99636.09;;;6.23;100.00
53889;BME280;41337;51.400;-2.342;2022-12-29T09:35:27;99645.59;;;6.23;100.00
53889;BME280;41337;51.400;-2.342;2022-12-29T09:40:34;99657.66;;;6.13;100.00
53889;BME280;41337;51.400;-2.342;2022-12-29T09:50:40;99668.00;;;6.12;100.00
53889;BME280;41337;51.400;-2.342;2022-12-29T09:55:48;99689.56;;;6.24;100.00
53889;BME280;41337;51.400;-2.342;2022-12-29T10:00:57;99693.00;;;6.23;100.00
53889;BME280;41337;51.400;-2.342;2022-12-29T10:06:26;99695.59;;;6.20;100.00
53889;BME280;41337;51.400;-2.342;2022-12-29T10:17:02;99727.41;;;5.99;100.00
53889;BME280;41337;51.400;-2.342;2022-12-29T10:27:49;99742.09;;;6.08;100.00
53889;BME280;41337;51.400;-2.342;2022-12-29T10:32:54;99738.66;;;6.07;100.00
53889;BME280;41337;51.400;-2.342;2022-12-29T10:43:30;99786.19;;;6.45;100.00
53889;BME280;41337;51.400;-2.342;2022-12-29T10:48:33;99759.44;;;6.38;100.00
53889;BME280;41337;51.400;-2.342;2022-12-29T10:53:42;99758.56;;;6.33;100.00
53889;BME280;41337;51.400;-2.342;2022-12-29T10:58:49;99759.41;;;6.31;100.00
53889;BME280;41337;51.400;-2.342;2022-12-29T11:04:02;99756.88;;;6.46;100.00
53889;BME280;41337;51.400;-2.342;2022-12-29T11:09:18;99763.75;;;6.36;100.00
53889;BME280;41337;51.400;-2.342;2022-12-29T11:14:42;99756.81;;;6.21;100.00
53889;BME280;41337;51.400;-2.342;2022-12-29T11:19:45;99758.53;;;6.29;100.00
53889;BME280;41337;51.400;-2.342;2022-12-29T11:24:46;99756.00;;;6.39;100.00
53889;BME280;41337;51.400;-2.342;2022-12-29T11:29:48;99756.00;;;6.52;100.00
53889;BME280;41337;51.400;-2.342;2022-12-29T11:34:50;99768.09;;;6.50;100.00
53889;BME280;41337;51.400;-2.342;2022-12-29T11:40:03;99768.94;;;6.50;100.00
53889;BME280;41337;51.400;-2.342;2022-12-29T11:45:25;99751.72;;;6.75;100.00
53889;BME280;41337;51.400;-2.342;2022-12-29T11:50:39;99769.84;;;7.22;100.00
53889;BME280;41337;51.400;-2.342;2022-12-29T11:56:17;99780.19;;;7.56;100.00
53889;BME280;41337;51.400;-2.342;2022-12-29T12:01:35;99795.69;;;7.79;100.00
53889;BME280;41337;51.400;-2.342;2022-12-29T12:12:39;99831.84;;;8.17;100.00
53889;BME280;41337;51.400;-2.342;2022-12-29T12:29:48;99827.56;;;8.08;100.00
53889;BME280;41337;51.400;-2.342;2022-12-29T12:34:55;99841.47;;;7.84;100.00
53889;BME280;41337;51.400;-2.342;2022-12-29T13:28:24;99869.97;;;7.87;100.00
53889;BME280;41337;51.400;-2.342;2022-12-29T13:38:38;99865.69;;;7.40;100.00
53889;BME280;41337;51.400;-2.342;2022-12-29T13:43:45;99874.34;;;7.10;100.00
53889;BME280;41337;51.400;-2.342;2022-12-29T13:54:23;99844.94;;;6.74;100.00
53889;BME280;41337;51.400;-2.342;2022-12-29T14:05:01;99818.16;;;6.64;100.00
53889;BME280;41337;51.400;-2.342;2022-12-29T14:10:04;99824.19;;;6.69;100.00
53889;BME280;41337;51.400;-2.342;2022-12-29T14:20:21;99829.44;;;7.14;100.00
53889;BME280;41337;51.400;-2.342;2022-12-29T14:47:11;99899.41;;;7.74;100.00
53889;BME280;41337;51.400;-2.342;2022-12-29T14:52:27;99901.13;;;7.63;100.00
53889;BME280;41337;51.400;-2.342;2022-12-29T14:57:52;99909.78;;;7.49;100.00
53889;BME280;41337;51.400;-2.342;2022-12-29T15:08:20;99927.91;;;7.29;100.00
53889;BME280;41337;51.400;-2.342;2022-12-29T15:13:37;99927.00;;;7.07;100.00
53889;BME280;41337;51.400;-2.342;2022-12-29T15:18:38;99938.19;;;6.97;100.00
53889;BME280;41337;51.400;-2.342;2022-12-29T15:23:46;99947.69;;;6.92;100.00
53889;BME280;41337;51.400;-2.342;2022-12-29T15:28:51;99948.44;;;6.69;100.00
53889;BME280;41337;51.400;-2.342;2022-12-29T15:34:01;99952.72;;;6.58;100.00
53889;BME280;41337;51.400;-2.342;2022-12-29T15:39:31;99957.06;;;6.70;100.00
53889;BME280;41337;51.400;-2.342;2022-12-29T15:44:41;99975.19;;;6.62;100.00
53889;BME280;41337;51.400;-2.342;2022-12-29T15:49:44;99972.59;;;6.60;100.00
53889;BME280;41337;51.400;-2.342;2022-12-29T15:54:52;99986.28;;;6.47;100.00
53889;BME280;41337;51.400;-2.342;2022-12-29T15:59:54;99991.47;;;6.49;100.00
53889;BME280;41337;51.400;-2.342;2022-12-29T16:04:55;100007.84;;;6.45;100.00
53889;BME280;41337;51.400;-2.342;2022-12-29T16:09:58;100023.34;;;6.38;100.00
53889;BME280;41337;51.400;-2.342;2022-12-29T16:15:13;100025.06;;;6.36;100.00
53889;BME280;41337;51.400;-2.342;2022-12-29T16:20:24;100016.34;;;6.27;100.00
53889;BME280;41337;51.400;-2.342;2022-12-29T16:25:29;100017.97;;;6.11;100.00
53889;BME280;41337;51.400;-2.342;2022-12-29T16:30:32;100012.72;;;6.01;100.00
53889;BME280;41337;51.400;-2.342;2022-12-29T16:40:57;100024.53;;;5.75;100.00
53889;BME280;41337;51.400;-2.342;2022-12-29T16:51:35;100028.72;;;5.63;100.00
53889;BME280;41337;51.400;-2.342;2022-12-29T16:56:43;100030.25;;;5.46;100.00
53889;BME280;41337;51.400;-2.342;2022-12-29T17:01:51;100034.47;;;5.38;100.00
53889;BME280;41337;51.400;-2.342;2022-12-29T17:06:52;100037.81;;;5.27;100.00
53889;BME280;41337;51.400;-2.342;2022-12-29T17:11:55;100035.09;;;5.13;100.00
53889;BME280;41337;51.400;-2.342;2022-12-29T17:17:00;100035.91;;;5.11;100.00
53889;BME280;41337;51.400;-2.342;2022-12-29T17:22:03;100054.03;;;5.15;100.00
53889;BME280;41337;51.400;-2.342;2022-12-29T17:32:22;100054.84;;;5.13;100.00
53889;BME280;41337;51.400;-2.342;2022-12-29T17:42:24;100056.53;;;5.08;100.00
53889;BME280;41337;51.400;-2.342;2022-12-29T17:47:25;100050.53;;;5.09;100.00
53889;BME280;41337;51.400;-2.342;2022-12-29T17:52:26;100057.41;;;5.10;100.00
53889;BME280;41337;51.400;-2.342;2022-12-29T17:57:27;100055.69;;;5.10;100.00
53889;BME280;41337;51.400;-2.342;2022-12-29T18:02:32;100083.50;;;5.30;100.00
53889;BME280;41337;51.400;-2.342;2022-12-29T18:07:34;100090.34;;;5.29;100.00
53889;BME280;41337;51.400;-2.342;2022-12-29T18:12:46;100092.84;;;5.20;100.00
53889;BME280;41337;51.400;-2.342;2022-12-29T18:17:48;100092.91;;;5.26;100.00
53889;BME280;41337;51.400;-2.342;2022-12-29T18:22:56;100094.50;;;5.18;100.00
53889;BME280;41337;51.400;-2.342;2022-12-29T18:27:58;100079.72;;;5.06;100.00
53889;BME280;41337;51.400;-2.342;2022-12-29T18:32:59;100084.84;;;5.03;100.00
53889;BME280;41337;51.400;-2.342;2022-12-29T18:38:00;100075.25;;;4.91;100.00
53889;BME280;41337;51.400;-2.342;2022-12-29T18:43:01;100082.94;;;4.88;100.00
53889;BME280;41337;51.400;-2.342;2022-12-29T18:48:07;100072.53;;;4.81;100.00
53889;BME280;41337;51.400;-2.342;2022-12-29T18:53:37;100092.28;;;4.78;100.00
53889;BME280;41337;51.400;-2.342;2022-12-29T18:58:38;100112.19;;;4.86;100.00
53889;BME280;41337;51.400;-2.342;2022-12-29T19:03:39;100109.47;;;4.78;100.00
53889;BME280;41337;51.400;-2.342;2022-12-29T19:08:49;100106.72;;;4.67;100.00
53889;BME280;41337;51.400;-2.342;2022-12-29T19:13:55;100104.41;;;4.84;100.00
53889;BME280;41337;51.400;-2.342;2022-12-29T19:18:56;100113.16;;;4.94;100.00
53889;BME280;41337;51.400;-2.342;2022-12-29T19:24:00;100126.16;;;5.02;100.00
53889;BME280;41337;51.400;-2.342;2022-12-29T19:29:07;100137.16;;;4.90;100.00
53889;BME280;41337;51.400;-2.342;2022-12-29T19:34:12;100140.53;;;4.83;100.00
53889;BME280;41337;51.400;-2.342;2022-12-29T19:39:16;100134.56;;;4.88;100.00
53889;BME280;41337;51.400;-2.342;2022-12-29T19:44:17;100128.50;;;4.85;100.00
53889;BME280;41337;51.400;-2.342;2022-12-29T19:49:19;100142.19;;;4.79;100.00
53889;BME280;41337;51.400;-2.342;2022-12-29T19:54:19;100131.88;;;4.79;100.00
53889;BME280;41337;51.400;-2.342;2022-12-29T19:59:20;100138.66;;;4.74;100.00
53889;BME280;41337;51.400;-2.342;2022-12-29T20:04:21;100135.16;;;4.70;100.00
53889;BME280;41337;51.400;-2.342;2022-12-29T20:09:22;100122.22;;;4.67;100.00
53889;BME280;41337;51.400;-2.342;2022-12-29T20:14:23;100118.78;;;4.68;100.00
53889;BME280;41337;51.400;-2.342;2022-12-29T20:19:24;100129.84;;;4.59;100.00
53889;BME280;41337;51.400;-2.342;2022-12-29T20:24:32;100130.66;;;4.57;100.00
53889;BME280;41337;51.400;-2.342;2022-12-29T20:29:42;100133.28;;;4.60;100.00
53889;BME280;41337;51.400;-2.342;2022-12-29T20:34:50;100135.00;;;4.59;100.00
53889;BME280;41337;51.400;-2.342;2022-12-29T20:39:52;100116.81;;;4.50;100.00
53889;BME280;41337;51.400;-2.342;2022-12-29T20:44:53;100117.56;;;4.46;100.00
53889;BME280;41337;51.400;-2.342;2022-12-29T20:49:54;100114.44;;;4.66;100.00
53889;BME280;41337;51.400;-2.342;2022-12-29T20:54:55;100117.34;;;4.86;100.00
53889;BME280;41337;51.400;-2.342;2022-12-29T20:59:55;100114.19;;;5.10;100.00
53889;BME280;41337;51.400;-2.342;2022-12-29T21:04:56;100136.91;;;5.34;100.00
53889;BME280;41337;51.400;-2.342;2022-12-29T21:09:57;100155.00;;;5.36;100.00
53889;BME280;41337;51.400;-2.342;2022-12-29T21:15:04;100144.88;;;5.51;100.00
53889;BME280;41337;51.400;-2.342;2022-12-29T21:20:15;100157.81;;;5.53;100.00
53889;BME280;41337;51.400;-2.342;2022-12-29T21:25:32;100154.44;;;5.60;100.00
53889;BME280;41337;51.400;-2.342;2022-12-29T21:30:43;100153.16;;;5.25;100.00
53889;BME280;41337;51.400;-2.342;2022-12-29T21:35:45;100127.31;;;5.24;100.00
53889;BME280;41337;51.400;-2.342;2022-12-29T21:40:46;100130.88;;;5.33;100.00
53889;BME280;41337;51.400;-2.342;2022-12-29T21:45:53;100123.91;;;5.26;100.00
53889;BME280;41337;51.400;-2.342;2022-12-29T21:50:57;100117.22;;;5.44;100.00
53889;BME280;41337;51.400;-2.342;2022-12-29T21:56:20;100116.59;;;5.63;100.00
53889;BME280;41337;51.400;-2.342;2022-12-29T22:01:23;100120.50;;;5.30;100.00
53889;BME280;41337;51.400;-2.342;2022-12-29T22:06:42;100123.91;;;5.28;100.00
53889;BME280;41337;51.400;-2.342;2022-12-29T22:12:02;100116.53;;;5.59;100.00
53889;BME280;41337;51.400;-2.342;2022-12-29T22:17:21;100120.66;;;5.43;100.00
53889;BME280;41337;51.400;-2.342;2022-12-29T22:22:22;100116.88;;;5.16;100.00
53889;BME280;41337;51.400;-2.342;2022-12-29T22:27:23;100097.56;;;4.88;100.00
53889;BME280;41337;51.400;-2.342;2022-12-29T22:32:24;100090.59;;;4.82;100.00
53889;BME280;41337;51.400;-2.342;2022-12-29T22:37:24;100072.50;;;4.79;100.00
53889;BME280;41337;51.400;-2.342;2022-12-29T22:42:25;100064.81;;;4.84;100.00
53889;BME280;41337;51.400;-2.342;2022-12-29T22:47:32;100046.59;;;4.71;100.00
53889;BME280;41337;51.400;-2.342;2022-12-29T22:52:33;100055.97;;;4.65;100.00
53889;BME280;41337;51.400;-2.342;2022-12-29T22:57:35;100052.53;;;4.66;100.00
53889;BME280;41337;51.400;-2.342;2022-12-29T23:02:36;100037.81;;;4.58;100.00
53889;BME280;41337;51.400;-2.342;2022-12-29T23:07:37;100035.09;;;4.49;100.00
53889;BME280;41337;51.400;-2.342;2022-12-29T23:12:38;100036.72;;;4.44;100.00
53889;BME280;41337;51.400;-2.342;2022-12-29T23:17:38;100024.66;;;4.40;100.00
53889;BME280;41337;51.400;-2.342;2022-12-29T23:22:39;100007.34;;;4.33;100.00
53889;BME280;41337;51.400;-2.342;2022-12-29T23:27:40;99985.78;;;4.28;100.00
53889;BME280;41337;51.400;-2.342;2022-12-29T23:32:41;99976.28;;;4.27;100.00
53889;BME280;41337;51.400;-2.342;2022-12-29T23:37:41;99959.03;;;4.19;100.00
53889;BME280;41337;51.400;-2.342;2022-12-29T23:42:42;99948.63;;;4.13;100.00
53889;BME280;41337;51.400;-2.342;2022-12-29T23:47:43;99924.63;;;4.17;100.00
53889;BME280;41337;51.400;-2.342;2022-12-29T23:53:09;99890.47;;;4.34;100.00
53889;BME280;41337;51.400;-2.342;2022-12-29T23:58:10;99881.19;;;4.48;100.00
